Time;durP1;ratioP1;P1;durP2;ratioP2;P2;SDS_P1;SDS_P2;PMS_P1;PMS_P2;Temp;Humidity;BMP_temperature;BMP_pressure;BME280_temperature;BME280_humidity;BME280_pressure;Samples;Min_cycle;Max_cycle;Signal;HPM_P1;HPM_P2
2022/11/22 00:02:01;;;;;;;;;;;7.30;99.90;;;;;;4956884;28;19937;-78
2022/11/22 00:04:28;;;;;;;;;;;7.30;99.90;;;;;;4957013;28;19931;-77
2022/11/22 00:06:54;;;;;;;;;;;7.30;99.90;;;;;;4951155;28;19930;-77
2022/11/22 00:09:21;;;;;;;;;;;7.40;99.90;;;;;;4953437;28;20412;-78
2022/11/22 00:11:47;;;;;;;;;;;7.30;99.90;;;;;;4953927;28;19930;-78
2022/11/22 00:14:15;;;;;;;;;;;7.30;99.90;;;;;;4953869;28;19942;-78
2022/11/22 00:16:42;;;;;;;;;;;7.30;99.90;;;;;;4949062;28;20637;-78
2022/11/22 00:19:08;;;;;;;;;;;7.30;99.90;;;;;;4956380;28;19929;-77
2022/11/22 00:21:35;;;;;;;;;;;7.30;99.90;;;;;;4953444;28;19937;-78
2022/11/22 00:24:01;;;;;;;;;;;7.30;99.90;;;;;;4954965;28;19937;-78
2022/11/22 00:26:28;;;;;;;;;;;7.40;99.90;;;;;;4954368;28;19930;-78
2022/11/22 00:28:54;;;;;;;;;;;7.30;99.90;;;;;;4954444;28;19976;-78
2022/11/22 00:31:23;;;;;;;;;;;7.30;99.90;;;;;;4953220;28;19937;-78
2022/11/22 00:33:49;;;;;;;;;;;7.30;99.90;;;;;;4957002;28;19926;-78
2022/11/22 00:36:16;;;;;;;;;;;7.30;99.90;;;;;;4956603;28;19934;-77
2022/11/22 00:38:42;;;;;;;;;;;7.30;99.90;;;;;;4956614;28;19934;-79
2022/11/22 00:41:09;;;;;;;;;;;7.30;99.90;;;;;;4956989;28;20395;-78
2022/11/22 00:43:36;;;;;;;;;;;7.30;99.90;;;;;;4959427;28;20019;-78
2022/11/22 00:46:02;;;;;;;;;;;7.30;99.90;;;;;;4954834;28;19938;-78
2022/11/22 00:48:30;;;;;;;;;;;7.30;99.90;;;;;;4958481;28;19929;-77
2022/11/22 00:50:57;;;;;;;;;;;7.30;99.90;;;;;;4960146;28;20055;-78
2022/11/22 00:53:23;;;;;;;;;;;7.30;99.90;;;;;;4954512;28;19941;-78
2022/11/22 00:55:50;;;;;;;;;;;7.30;99.90;;;;;;4968629;28;19930;-78
2022/11/22 00:58:16;;;;;;;;;;;7.30;99.90;;;;;;4958299;28;20419;-78
2022/11/22 01:00:43;;;;;;;;;;;7.30;99.90;;;;;;4960544;28;20738;-78
2022/11/22 01:03:10;;;;;;;;;;;7.30;99.90;;;;;;4961814;28;19930;-78
2022/11/22 01:05:38;;;;;;;;;;;7.30;99.90;;;;;;4960106;28;19929;-75
2022/11/22 01:08:05;;;;;;;;;;;7.30;99.90;;;;;;4957973;28;20813;-77
2022/11/22 01:10:34;;;;;;;;;;;7.30;99.90;;;;;;4959863;28;19930;-78
2022/11/22 01:13:01;;;;;;;;;;;7.30;99.90;;;;;;4960045;28;19931;-78
2022/11/22 01:15:27;;;;;;;;;;;7.30;99.90;;;;;;4960062;28;19961;-78
2022/11/22 01:17:54;;;;;;;;;;;7.30;99.90;;;;;;4959197;28;19934;-78
2022/11/22 01:20:21;;;;;;;;;;;7.30;99.90;;;;;;4958592;28;19926;-78
2022/11/22 01:22:50;;;;;;;;;;;7.30;99.90;;;;;;4959856;28;19978;-78
2022/11/22 01:25:16;;;;;;;;;;;7.30;99.90;;;;;;4957767;28;19930;-77
2022/11/22 01:27:43;;;;;;;;;;;7.40;99.90;;;;;;4956199;28;19937;-77
2022/11/22 01:30:11;;;;;;;;;;;7.40;99.90;;;;;;4956904;28;19937;-78
2022/11/22 01:32:38;;;;;;;;;;;7.30;99.90;;;;;;4952839;28;19930;-78
2022/11/22 01:35:04;;;;;;;;;;;7.40;99.90;;;;;;4962542;28;19934;-78
2022/11/22 01:37:31;;;;;;;;;;;7.40;99.90;;;;;;4963083;28;19930;-78
2022/11/22 01:39:59;;;;;;;;;;;7.40;99.90;;;;;;4964214;28;19945;-77
2022/11/22 01:42:39;;;;;;;;;;;7.40;99.90;;;;;;4959427;28;19934;-78
2022/11/22 01:45:20;;;;;;;;;;;7.40;99.90;;;;;;4962456;28;19937;-78
2022/11/22 01:47:47;;;;;;;;;;;7.40;99.90;;;;;;4959934;28;19930;-78
2022/11/22 01:50:16;;;;;;;;;;;7.40;99.90;;;;;;4958320;28;19937;-78
2022/11/22 01:52:43;;;;;;;;;;;7.30;99.90;;;;;;4960093;28;20682;-77
2022/11/22 01:55:12;;;;;;;;;;;7.40;99.90;;;;;;4963210;28;19938;-78
2022/11/22 01:57:40;;;;;;;;;;;7.40;99.90;;;;;;4959263;28;19981;-78
2022/11/22 02:00:08;;;;;;;;;;;7.40;99.90;;;;;;4958304;28;19934;-78
2022/11/22 02:02:35;;;;;;;;;;;7.40;99.90;;;;;;4958884;28;19946;-78
2022/11/22 02:05:03;;;;;;;;;;;7.40;99.90;;;;;;4960324;28;19937;-78
2022/11/22 02:07:33;;;;;;;;;;;7.40;99.90;;;;;;4954296;28;19930;-78
2022/11/22 02:10:00;;;;;;;;;;;7.40;99.90;;;;;;4960616;28;19938;-78
2022/11/22 02:12:30;;;;;;;;;;;7.50;99.90;;;;;;4957207;28;19931;-78
2022/11/22 02:14:57;;;;;;;;;;;7.40;99.90;;;;;;4953924;28;19930;-79
2022/11/22 02:17:25;;;;;;;;;;;7.40;99.90;;;;;;4960064;28;19941;-77
2022/11/22 02:19:52;;;;;;;;;;;7.40;99.90;;;;;;4958843;28;19934;-77
2022/11/22 02:22:23;;;;;;;;;;;7.40;99.90;;;;;;4958676;28;20040;-79
2022/11/22 02:24:51;;;;;;;;;;;7.40;99.90;;;;;;4959145;28;19934;-78
2022/11/22 02:27:19;;;;;;;;;;;7.40;99.90;;;;;;4960904;28;19957;-78
2022/11/22 02:29:46;;;;;;;;;;;7.50;99.90;;;;;;4955515;28;19938;-78
2022/11/22 02:32:12;;;;;;;;;;;7.50;99.90;;;;;;4953274;28;19926;-78
2022/11/22 02:34:43;;;;;;;;;;;7.50;99.90;;;;;;4957565;28;19934;-78
2022/11/22 02:37:10;;;;;;;;;;;7.50;99.90;;;;;;4959253;28;19941;-78
2022/11/22 02:39:37;;;;;;;;;;;7.50;99.90;;;;;;4957106;28;19934;-77
2022/11/22 02:42:04;;;;;;;;;;;7.50;99.90;;;;;;4956978;28;19938;-78
2022/11/22 02:44:32;;;;;;;;;;;7.50;99.90;;;;;;4962443;28;19937;-78
2022/11/22 02:46:58;;;;;;;;;;;7.50;99.90;;;;;;4958677;28;19930;-78
2022/11/22 02:49:25;;;;;;;;;;;7.50;99.90;;;;;;4954647;28;19941;-78
2022/11/22 02:51:52;;;;;;;;;;;7.50;99.90;;;;;;4956339;28;19931;-78
2022/11/22 02:54:19;;;;;;;;;;;7.50;99.90;;;;;;4956136;28;19930;-78
2022/11/22 02:56:45;;;;;;;;;;;7.50;99.90;;;;;;4959443;28;19937;-78
2022/11/22 02:59:12;;;;;;;;;;;7.50;99.90;;;;;;4951938;28;19930;-77
2022/11/22 03:01:41;;;;;;;;;;;7.50;99.90;;;;;;4953748;28;19930;-78
2022/11/22 03:04:07;;;;;;;;;;;7.50;99.90;;;;;;4956422;28;20394;-78
2022/11/22 03:06:34;;;;;;;;;;;7.50;99.90;;;;;;4954639;28;19930;-78
2022/11/22 03:09:00;;;;;;;;;;;7.50;99.90;;;;;;4959662;28;20044;-78
2022/11/22 03:11:27;;;;;;;;;;;7.50;99.90;;;;;;4958121;28;19931;-78
2022/11/22 03:13:53;;;;;;;;;;;7.50;99.90;;;;;;4954704;28;19930;-78
2022/11/22 03:16:20;;;;;;;;;;;7.50;99.90;;;;;;4958646;28;19930;-78
2022/11/22 03:18:48;;;;;;;;;;;7.50;99.90;;;;;;4958163;28;19935;-78
2022/11/22 03:21:14;;;;;;;;;;;7.60;99.90;;;;;;4955000;28;19930;-78
2022/11/22 03:23:41;;;;;;;;;;;7.50;99.90;;;;;;4955784;28;20528;-78
2022/11/22 03:26:08;;;;;;;;;;;7.50;99.90;;;;;;4956865;28;19930;-78
2022/11/22 03:28:35;;;;;;;;;;;7.50;99.90;;;;;;4957144;28;19935;-77
2022/11/22 03:31:01;;;;;;;;;;;7.60;99.90;;;;;;4952203;28;19937;-78
2022/11/22 03:33:28;;;;;;;;;;;7.50;99.90;;;;;;4958116;28;19945;-78
2022/11/22 03:35:56;;;;;;;;;;;7.60;99.90;;;;;;4954575;28;19934;-78
2022/11/22 03:38:23;;;;;;;;;;;7.60;99.90;;;;;;4954206;28;19934;-78
2022/11/22 03:40:50;;;;;;;;;;;7.50;99.90;;;;;;4956122;28;19930;-78
2022/11/22 03:43:16;;;;;;;;;;;7.60;99.90;;;;;;4959855;28;19930;-78
2022/11/22 03:45:44;;;;;;;;;;;7.50;99.90;;;;;;4955202;28;20310;-78
2022/11/22 03:48:11;;;;;;;;;;;7.50;99.90;;;;;;4958683;28;20494;-78
2022/11/22 03:50:38;;;;;;;;;;;7.60;99.90;;;;;;4957876;28;20407;-78
2022/11/22 03:53:05;;;;;;;;;;;7.70;99.90;;;;;;4951054;28;19934;-78
2022/11/22 03:55:32;;;;;;;;;;;7.60;99.90;;;;;;4950520;28;19930;-78
2022/11/22 03:57:59;;;;;;;;;;;7.60;99.90;;;;;;4957614;28;19934;-78
2022/11/22 04:00:25;;;;;;;;;;;7.60;99.90;;;;;;4953260;28;20396;-78
2022/11/22 04:02:52;;;;;;;;;;;7.60;99.90;;;;;;4957290;28;20409;-78
2022/11/22 04:05:18;;;;;;;;;;;7.60;99.90;;;;;;4948280;28;19930;-78
2022/11/22 04:07:45;;;;;;;;;;;7.60;99.90;;;;;;4952257;28;19930;-78
2022/11/22 04:10:13;;;;;;;;;;;7.60;99.90;;;;;;4953668;28;20197;-78
2022/11/22 04:12:39;;;;;;;;;;;7.50;99.90;;;;;;4950950;28;19956;-78
2022/11/22 04:15:05;;;;;;;;;;;7.60;99.90;;;;;;4950925;28;19930;-77
2022/11/22 04:17:43;;;;;;;;;;;7.60;99.90;;;;;;4957350;28;19940;-78
2022/11/22 04:23:11;;;;;;;;;;;7.60;99.90;;;;;;4935816;28;19926;-78
2022/11/22 04:25:39;;;;;;;;;;;7.60;99.60;;;;;;4935760;28;19931;-78
2022/11/22 04:28:07;;;;;;;;;;;7.50;98.90;;;;;;4944402;28;20005;-78
2022/11/22 04:33:18;;;;;;;;;;;7.60;99.10;;;;;;4957436;28;20086;-78
2022/11/22 04:35:45;;;;;;;;;;;7.60;99.20;;;;;;4963825;28;19934;-78
2022/11/22 04:38:12;;;;;;;;;;;7.60;99.30;;;;;;4960085;28;20018;-78
2022/11/22 04:40:40;;;;;;;;;;;7.60;99.30;;;;;;4953749;28;19946;-78
2022/11/22 04:45:52;;;;;;;;;;;7.60;99.40;;;;;;4953834;28;20774;-78
2022/11/22 04:48:18;;;;;;;;;;;7.60;99.40;;;;;;4959172;28;19935;-78
2022/11/22 04:53:29;;;;;;;;;;;7.50;99.30;;;;;;4959501;28;19996;-78
2022/11/22 04:55:57;;;;;;;;;;;7.60;99.40;;;;;;4963210;28;19946;-78
2022/11/22 04:58:24;;;;;;;;;;;7.60;99.30;;;;;;4958726;28;19931;-78
2022/11/22 05:00:51;;;;;;;;;;;7.60;99.30;;;;;;4957568;28;19930;-78
2022/11/22 05:03:18;;;;;;;;;;;7.60;99.30;;;;;;4959500;28;19937;-77
2022/11/22 05:05:45;;;;;;;;;;;7.60;99.30;;;;;;4958097;28;19941;-77
2022/11/22 05:08:12;;;;;;;;;;;7.50;99.30;;;;;;4960242;28;19937;-78
2022/11/22 05:10:56;;;;;;;;;;;7.60;99.30;;;;;;4954814;28;19926;-78
2022/11/22 05:13:25;;;;;;;;;;;7.50;99.20;;;;;;4960878;28;19930;-77
2022/11/22 05:15:52;;;;;;;;;;;7.50;99.20;;;;;;4957710;28;19934;-78
2022/11/22 05:18:18;;;;;;;;;;;7.50;99.20;;;;;;4959682;28;19926;-77
2022/11/22 05:20:45;;;;;;;;;;;7.50;99.20;;;;;;4960451;28;19930;-78
2022/11/22 05:25:56;;;;;;;;;;;7.50;99.20;;;;;;4960238;28;19937;-78
2022/11/22 05:28:22;;;;;;;;;;;7.50;99.20;;;;;;4964236;28;19931;-77
2022/11/22 05:30:50;;;;;;;;;;;7.50;99.20;;;;;;4959491;28;19930;-78
2022/11/22 05:33:17;;;;;;;;;;;7.50;99.30;;;;;;4968623;28;19930;-77
2022/11/22 05:35:43;;;;;;;;;;;7.40;99.20;;;;;;4968787;28;19937;-78
2022/11/22 05:38:10;;;;;;;;;;;7.40;99.30;;;;;;4967325;28;19946;-78
2022/11/22 05:40:36;;;;;;;;;;;7.40;99.30;;;;;;4962033;28;19930;-78
2022/11/22 05:43:03;;;;;;;;;;;7.50;99.30;;;;;;4965970;28;19935;-77
2022/11/22 05:45:30;;;;;;;;;;;7.50;99.30;;;;;;4966620;28;19937;-78
2022/11/22 05:47:58;;;;;;;;;;;7.40;99.30;;;;;;4965654;28;19930;-77
2022/11/22 05:50:25;;;;;;;;;;;7.40;99.30;;;;;;4964919;28;20845;-78
2022/11/22 05:52:51;;;;;;;;;;;7.40;99.30;;;;;;4961469;28;19930;-77
2022/11/22 05:55:18;;;;;;;;;;;7.40;99.30;;;;;;4958886;28;19937;-77
2022/11/22 05:57:44;;;;;;;;;;;7.40;99.30;;;;;;4962262;28;19931;-77
2022/11/22 06:00:11;;;;;;;;;;;7.40;99.30;;;;;;4959599;28;19937;-77
2022/11/22 06:02:38;;;;;;;;;;;7.30;99.30;;;;;;4956897;28;19930;-77
2022/11/22 06:05:06;;;;;;;;;;;7.30;99.30;;;;;;4959704;28;19933;-78
2022/11/22 06:07:33;;;;;;;;;;;7.30;99.30;;;;;;4957635;28;20748;-78
2022/11/22 06:09:59;;;;;;;;;;;7.30;99.30;;;;;;4954136;28;19930;-78
2022/11/22 06:12:26;;;;;;;;;;;7.30;99.40;;;;;;4954405;28;20164;-77
2022/11/22 06:14:52;;;;;;;;;;;7.30;99.40;;;;;;4956814;28;19938;-77
2022/11/22 06:17:19;;;;;;;;;;;7.30;99.40;;;;;;4959258;28;19930;-77
2022/11/22 06:19:46;;;;;;;;;;;7.30;99.40;;;;;;4959645;28;19934;-77
2022/11/22 06:22:14;;;;;;;;;;;7.30;99.40;;;;;;4957645;28;20005;-78
2022/11/22 06:24:41;;;;;;;;;;;7.30;99.40;;;;;;4956197;28;19945;-77
2022/11/22 06:27:08;;;;;;;;;;;7.30;99.40;;;;;;4956840;28;20036;-79
2022/11/22 06:29:34;;;;;;;;;;;7.20;99.40;;;;;;4952211;28;19930;-79
2022/11/22 06:32:01;;;;;;;;;;;7.30;99.40;;;;;;4953908;28;20407;-77
2022/11/22 06:34:28;;;;;;;;;;;7.20;99.40;;;;;;4957522;28;19946;-77
2022/11/22 06:36:54;;;;;;;;;;;7.20;99.40;;;;;;4953915;28;19934;-77
2022/11/22 06:39:22;;;;;;;;;;;7.20;99.40;;;;;;4960889;28;20474;-77
2022/11/22 06:41:49;;;;;;;;;;;7.20;99.40;;;;;;4956095;28;20771;-78
2022/11/22 06:44:15;;;;;;;;;;;7.20;99.40;;;;;;4959147;28;19930;-78
2022/11/22 06:46:42;;;;;;;;;;;7.20;99.40;;;;;;4954091;28;19968;-77
2022/11/22 06:49:08;;;;;;;;;;;7.20;99.40;;;;;;4963100;28;19957;-77
2022/11/22 06:51:35;;;;;;;;;;;7.20;99.40;;;;;;4957843;28;19937;-77
2022/11/22 06:54:01;;;;;;;;;;;7.20;99.40;;;;;;4962565;28;19937;-77
2022/11/22 06:56:31;;;;;;;;;;;7.20;99.40;;;;;;4953574;28;19930;-78
2022/11/22 06:58:57;;;;;;;;;;;7.10;99.40;;;;;;4954143;28;19934;-77
2022/11/22 07:01:25;;;;;;;;;;;7.10;99.30;;;;;;4958293;28;19930;-78
2022/11/22 07:03:54;;;;;;;;;;;7.10;99.30;;;;;;4960610;28;19930;-77
2022/11/22 07:06:21;;;;;;;;;;;7.10;99.30;;;;;;4959374;28;19931;-78
2022/11/22 07:08:48;;;;;;;;;;;7.10;99.30;;;;;;4951301;28;19930;-78
2022/11/22 07:11:15;;;;;;;;;;;7.10;99.20;;;;;;4952871;28;20494;-77
2022/11/22 07:13:43;;;;;;;;;;;7.10;99.20;;;;;;4961530;28;19937;-78
2022/11/22 07:16:11;;;;;;;;;;;7.10;99.20;;;;;;4958556;28;19934;-78
2022/11/22 07:18:38;;;;;;;;;;;7.10;99.20;;;;;;4961934;28;19937;-78
2022/11/22 07:21:05;;;;;;;;;;;7.10;99.20;;;;;;4962633;28;20652;-78
2022/11/22 07:23:32;;;;;;;;;;;7.00;99.10;;;;;;4961095;28;20335;-78
2022/11/22 07:25:58;;;;;;;;;;;7.10;99.10;;;;;;4959832;28;19930;-78
2022/11/22 07:28:25;;;;;;;;;;;7.10;99.10;;;;;;4956925;28;19931;-78
2022/11/22 07:30:53;;;;;;;;;;;7.10;99.10;;;;;;4961294;28;19934;-78
2022/11/22 07:33:20;;;;;;;;;;;7.10;99.20;;;;;;4961485;28;19930;-77
2022/11/22 07:35:46;;;;;;;;;;;7.10;99.10;;;;;;4961434;28;19941;-77
2022/11/22 07:38:13;;;;;;;;;;;7.10;99.10;;;;;;4958053;28;19941;-77
2022/11/22 07:40:40;;;;;;;;;;;7.10;99.10;;;;;;4959557;28;19930;-77
2022/11/22 07:43:06;;;;;;;;;;;7.10;99.10;;;;;;4954577;28;19981;-77
2022/11/22 07:45:33;;;;;;;;;;;7.10;99.10;;;;;;4959475;28;20022;-78
2022/11/22 07:48:01;;;;;;;;;;;7.10;99.10;;;;;;4961223;28;19937;-77
2022/11/22 07:50:27;;;;;;;;;;;7.10;99.10;;;;;;4961694;28;19957;-78
2022/11/22 07:52:55;;;;;;;;;;;7.10;99.10;;;;;;4966876;28;19937;-78
2022/11/22 07:55:21;;;;;;;;;;;7.10;99.10;;;;;;4969088;28;19949;-78
2022/11/22 07:57:48;;;;;;;;;;;7.10;99.10;;;;;;4967942;28;19937;-79
2022/11/22 08:00:14;;;;;;;;;;;7.10;99.10;;;;;;4962033;28;19930;-78
2022/11/22 08:02:41;;;;;;;;;;;7.10;99.10;;;;;;4970380;28;19934;-78
2022/11/22 08:05:09;;;;;;;;;;;7.10;99.20;;;;;;4974687;28;19930;-79
2022/11/22 08:07:36;;;;;;;;;;;7.00;99.10;;;;;;4972786;28;19941;-78
2022/11/22 08:10:02;;;;;;;;;;;7.10;99.10;;;;;;4966800;28;19937;-78
2022/11/22 08:12:29;;;;;;;;;;;7.10;99.10;;;;;;4965784;28;19993;-78
2022/11/22 08:14:56;;;;;;;;;;;7.10;99.20;;;;;;4972901;28;19934;-78
2022/11/22 08:17:22;;;;;;;;;;;7.10;99.20;;;;;;4972214;28;19933;-78
2022/11/22 08:19:52;;;;;;;;;;;7.10;99.20;;;;;;4973335;28;19930;-78
2022/11/22 08:22:20;;;;;;;;;;;7.10;99.20;;;;;;4972715;28;20290;-78
2022/11/22 08:24:46;;;;;;;;;;;7.10;99.20;;;;;;4971727;28;19937;-77
2022/11/22 08:27:13;;;;;;;;;;;7.10;99.20;;;;;;4973716;28;19937;-78
2022/11/22 08:29:39;;;;;;;;;;;7.10;99.20;;;;;;4968456;28;19937;-78
2022/11/22 08:32:06;;;;;;;;;;;7.10;99.20;;;;;;4961686;28;20526;-78
2022/11/22 08:34:33;;;;;;;;;;;7.10;99.20;;;;;;4968526;28;19937;-78
2022/11/22 08:36:59;;;;;;;;;;;7.10;99.20;;;;;;4968044;28;20360;-78
2022/11/22 08:39:27;;;;;;;;;;;7.10;99.20;;;;;;4968097;28;19926;-79
2022/11/22 08:41:54;;;;;;;;;;;7.10;99.20;;;;;;4967907;28;19953;-78
2022/11/22 08:44:20;;;;;;;;;;;7.10;99.20;;;;;;4970465;28;19941;-78
2022/11/22 08:46:47;;;;;;;;;;;7.10;99.20;;;;;;4968511;28;19942;-78
2022/11/22 08:49:13;;;;;;;;;;;7.10;99.20;;;;;;4969873;28;19930;-78
2022/11/22 08:51:43;;;;;;;;;;;7.10;99.20;;;;;;4965582;28;19930;-78
2022/11/22 08:54:10;;;;;;;;;;;7.10;99.20;;;;;;4968732;28;20771;-79
2022/11/22 08:56:38;;;;;;;;;;;7.20;99.20;;;;;;4963167;28;19994;-78
2022/11/22 08:59:05;;;;;;;;;;;7.20;99.10;;;;;;4964833;28;19934;-78
2022/11/22 09:01:31;;;;;;;;;;;7.10;99.10;;;;;;4964872;28;19930;-78
2022/11/22 09:03:58;;;;;;;;;;;7.20;99.10;;;;;;4966044;28;20633;-78
2022/11/22 09:06:25;;;;;;;;;;;7.20;99.10;;;;;;4968207;28;19933;-79
2022/11/22 09:08:51;;;;;;;;;;;7.10;99.00;;;;;;4968071;28;19936;-78
2022/11/22 09:11:19;;;;;;;;;;;7.20;99.00;;;;;;4963971;28;19939;-78
2022/11/22 09:13:47;;;;;;;;;;;7.20;99.00;;;;;;4962772;28;19934;-77
2022/11/22 09:16:14;;;;;;;;;;;7.20;99.00;;;;;;4969732;28;19930;-79
2022/11/22 09:18:41;;;;;;;;;;;7.20;98.90;;;;;;4964503;28;20390;-79
2022/11/22 09:21:08;;;;;;;;;;;7.20;98.80;;;;;;4961447;28;19952;-78
2022/11/22 09:23:35;;;;;;;;;;;7.20;98.80;;;;;;4967737;28;19934;-78
2022/11/22 09:26:03;;;;;;;;;;;7.20;98.70;;;;;;4967683;28;19935;-77
2022/11/22 09:28:30;;;;;;;;;;;7.30;98.70;;;;;;4964744;28;19926;-78
2022/11/22 09:31:01;;;;;;;;;;;7.30;98.70;;;;;;4961221;28;19930;-79
2022/11/22 09:33:28;;;;;;;;;;;7.30;98.60;;;;;;4966863;28;19930;-78
2022/11/22 09:35:59;;;;;;;;;;;7.30;98.60;;;;;;4969499;28;19931;-78
2022/11/22 09:38:25;;;;;;;;;;;7.30;98.90;;;;;;4968064;28;20564;-78
2022/11/22 09:40:52;;;;;;;;;;;7.30;98.50;;;;;;4966184;28;20013;-78
2022/11/22 09:43:23;;;;;;;;;;;7.30;98.40;;;;;;4964386;28;19934;-78
2022/11/22 09:46:01;;;;;;;;;;;7.30;98.40;;;;;;4965775;28;19930;-78
2022/11/22 09:48:35;;;;;;;;;;;7.40;98.30;;;;;;4964368;28;19941;-78
2022/11/22 09:51:03;;;;;;;;;;;7.30;98.20;;;;;;4968610;28;19930;-78
2022/11/22 09:53:32;;;;;;;;;;;7.40;98.20;;;;;;4967321;28;19930;-80
2022/11/22 09:56:00;;;;;;;;;;;7.40;98.20;;;;;;4964667;28;20018;-79
2022/11/22 09:58:28;;;;;;;;;;;7.40;98.10;;;;;;4961561;28;19930;-78
2022/11/22 10:00:56;;;;;;;;;;;7.40;98.00;;;;;;4956981;28;20129;-79
2022/11/22 10:03:26;;;;;;;;;;;7.40;98.00;;;;;;4968597;28;19930;-78
2022/11/22 10:05:56;;;;;;;;;;;7.50;98.00;;;;;;4963620;28;19934;-79
2022/11/22 10:08:29;;;;;;;;;;;7.50;98.00;;;;;;4970000;28;19938;-78
2022/11/22 10:10:57;;;;;;;;;;;7.50;98.30;;;;;;4964677;28;19930;-78
2022/11/22 10:13:28;;;;;;;;;;;7.50;97.90;;;;;;4969645;28;19945;-77
2022/11/22 10:15:56;;;;;;;;;;;7.50;97.80;;;;;;4961389;28;19927;-77
2022/11/22 10:18:27;;;;;;;;;;;7.50;97.80;;;;;;4961960;28;19930;-76
2022/11/22 10:20:55;;;;;;;;;;;7.50;97.80;;;;;;4966374;28;21680;-77
2022/11/22 10:23:23;;;;;;;;;;;7.50;97.70;;;;;;4964668;28;20303;-77
2022/11/22 10:25:54;;;;;;;;;;;7.50;97.70;;;;;;4965297;28;19930;-78
2022/11/22 10:28:24;;;;;;;;;;;7.50;97.70;;;;;;4962846;28;19926;-77
2022/11/22 10:30:55;;;;;;;;;;;7.50;97.60;;;;;;4968108;28;20015;-78
2022/11/22 10:33:23;;;;;;;;;;;7.50;97.50;;;;;;4963764;28;19937;-77
2022/11/22 10:35:57;;;;;;;;;;;7.50;97.50;;;;;;4960977;28;20218;-77
2022/11/22 10:38:38;;;;;;;;;;;7.60;97.60;;;;;;4968085;28;20000;-78
2022/11/22 10:41:10;;;;;;;;;;;7.60;97.60;;;;;;4960183;28;19969;-78
2022/11/22 10:43:41;;;;;;;;;;;7.60;97.60;;;;;;4962336;28;19941;-77
2022/11/22 10:46:13;;;;;;;;;;;7.60;97.60;;;;;;4965676;28;19934;-78
2022/11/22 10:48:43;;;;;;;;;;;7.60;97.60;;;;;;4966070;28;19930;-78
2022/11/22 10:51:14;;;;;;;;;;;7.60;97.50;;;;;;4965788;28;19930;-77
2022/11/22 10:53:47;;;;;;;;;;;7.60;97.50;;;;;;4963713;28;20187;-77
2022/11/22 10:56:16;;;;;;;;;;;7.60;97.40;;;;;;4961970;28;19930;-77
2022/11/22 10:58:50;;;;;;;;;;;7.60;97.40;;;;;;4958955;28;19930;-78
2022/11/22 11:01:18;;;;;;;;;;;7.60;97.20;;;;;;4956412;28;19937;-77
2022/11/22 11:03:47;;;;;;;;;;;7.70;97.10;;;;;;4966107;28;19941;-77
2022/11/22 11:06:18;;;;;;;;;;;7.70;97.00;;;;;;4957430;28;19946;-77
2022/11/22 11:08:48;;;;;;;;;;;7.70;97.00;;;;;;4956357;28;20037;-78
2022/11/22 11:11:15;;;;;;;;;;;7.70;97.00;;;;;;4962552;28;19935;-77
2022/11/22 11:13:44;;;;;;;;;;;7.70;97.00;;;;;;4965180;28;19969;-77
2022/11/22 11:16:14;;;;;;;;;;;7.70;97.00;;;;;;4966923;28;19930;-77
2022/11/22 11:18:43;;;;;;;;;;;7.80;96.90;;;;;;4965808;28;19930;-78
2022/11/22 11:21:12;;;;;;;;;;;7.80;96.80;;;;;;4966838;28;19938;-77
2022/11/22 11:23:38;;;;;;;;;;;7.80;96.80;;;;;;4961642;28;20416;-77
2022/11/22 11:26:25;;;;;;;;;;;7.80;96.70;;;;;;4957366;28;19934;-77
2022/11/22 11:28:54;;;;;;;;;;;7.80;96.60;;;;;;4957103;28;20778;-77
2022/11/22 11:31:20;;;;;;;;;;;7.80;96.50;;;;;;4954911;28;19938;-77
2022/11/22 11:33:47;;;;;;;;;;;7.80;96.50;;;;;;4957451;28;20400;-78
2022/11/22 11:36:15;;;;;;;;;;;7.80;96.50;;;;;;4952748;28;19945;-77
2022/11/22 11:38:53;;;;;;;;;;;7.90;96.70;;;;;;4958740;28;19930;-77
2022/11/22 11:41:28;;;;;;;;;;;7.90;96.70;;;;;;4955934;28;19941;-78
2022/11/22 11:43:56;;;;;;;;;;;7.90;96.70;;;;;;4955227;28;19942;-77
2022/11/22 11:46:23;;;;;;;;;;;7.90;96.40;;;;;;4955522;28;19938;-77
2022/11/22 11:48:51;;;;;;;;;;;7.90;96.60;;;;;;4957072;28;19934;-77
2022/11/22 11:51:19;;;;;;;;;;;7.90;96.40;;;;;;4954841;28;19930;-77
2022/11/22 11:53:54;;;;;;;;;;;8.00;96.40;;;;;;4961659;28;20013;-77
2022/11/22 11:56:26;;;;;;;;;;;8.00;96.10;;;;;;4956830;28;19949;-76
2022/11/22 11:58:55;;;;;;;;;;;8.00;96.10;;;;;;4956330;28;19929;-78
2022/11/22 12:01:23;;;;;;;;;;;8.00;96.00;;;;;;4954409;28;20037;-77
2022/11/22 12:03:55;;;;;;;;;;;8.00;96.00;;;;;;4958467;28;19930;-77
2022/11/22 12:06:27;;;;;;;;;;;8.00;95.90;;;;;;4957938;28;19930;-78
2022/11/22 12:08:53;;;;;;;;;;;8.00;95.90;;;;;;4959370;28;19930;-77
2022/11/22 12:11:22;;;;;;;;;;;8.00;96.10;;;;;;4954320;28;19935;-78
2022/11/22 12:13:50;;;;;;;;;;;8.10;96.20;;;;;;4955802;28;19942;-76
2022/11/22 12:16:22;;;;;;;;;;;8.10;95.90;;;;;;4961383;28;19953;-77
2022/11/22 12:18:52;;;;;;;;;;;8.10;95.60;;;;;;4951597;28;20825;-78
2022/11/22 12:21:22;;;;;;;;;;;8.10;95.60;;;;;;4955157;28;19945;-76
2022/11/22 12:23:51;;;;;;;;;;;8.10;95.60;;;;;;4957389;28;19941;-77
2022/11/22 12:26:18;;;;;;;;;;;8.20;95.70;;;;;;4956723;28;19930;-77
2022/11/22 12:28:45;;;;;;;;;;;8.20;95.60;;;;;;4958069;28;19941;-77
2022/11/22 12:31:17;;;;;;;;;;;8.20;95.40;;;;;;4950642;28;20168;-79
2022/11/22 12:33:48;;;;;;;;;;;8.20;95.30;;;;;;4958544;28;20438;-78
2022/11/22 12:36:17;;;;;;;;;;;8.20;95.20;;;;;;4960596;28;20219;-79
2022/11/22 12:38:45;;;;;;;;;;;8.30;95.00;;;;;;4964662;28;19935;-77
2022/11/22 12:41:13;;;;;;;;;;;8.30;95.00;;;;;;4960206;28;19937;-78
2022/11/22 12:43:43;;;;;;;;;;;8.30;94.80;;;;;;4968987;28;19941;-78
2022/11/22 12:46:11;;;;;;;;;;;8.30;94.70;;;;;;4963478;28;19930;-78
2022/11/22 12:48:40;;;;;;;;;;;8.30;94.80;;;;;;4961752;28;19934;-78
2022/11/22 12:51:13;;;;;;;;;;;8.30;94.80;;;;;;4966824;28;19934;-77
2022/11/22 12:53:41;;;;;;;;;;;8.30;94.70;;;;;;4964901;28;19993;-78
2022/11/22 12:56:11;;;;;;;;;;;8.40;94.90;;;;;;4964846;28;19930;-78
2022/11/22 12:58:40;;;;;;;;;;;8.40;95.00;;;;;;4957289;28;20317;-78
2022/11/22 13:01:13;;;;;;;;;;;8.40;94.90;;;;;;4959507;28;19933;-78
2022/11/22 13:03:44;;;;;;;;;;;8.40;95.00;;;;;;4959122;28;19989;-79
2022/11/22 13:06:12;;;;;;;;;;;8.50;95.00;;;;;;4955713;28;19930;-78
2022/11/22 13:08:42;;;;;;;;;;;8.60;94.90;;;;;;4956380;28;19934;-78
2022/11/22 13:11:13;;;;;;;;;;;8.70;95.00;;;;;;4958980;28;20290;-78
2022/11/22 13:13:42;;;;;;;;;;;8.90;95.10;;;;;;4956771;28;20430;-78
2022/11/22 13:16:10;;;;;;;;;;;8.90;95.10;;;;;;4959420;28;19934;-77
2022/11/22 13:18:38;;;;;;;;;;;9.00;95.10;;;;;;4953813;28;19937;-77
2022/11/22 13:21:09;;;;;;;;;;;9.10;94.90;;;;;;4952676;28;19971;-79
2022/11/22 13:23:52;;;;;;;;;;;9.10;94.80;;;;;;4957698;28;19942;-78
2022/11/22 13:26:21;;;;;;;;;;;9.20;94.60;;;;;;4963810;28;19954;-78
2022/11/22 13:28:48;;;;;;;;;;;9.30;94.50;;;;;;4962196;28;19937;-78
2022/11/22 13:31:17;;;;;;;;;;;9.30;94.50;;;;;;4962517;28;19930;-78
2022/11/22 13:33:51;;;;;;;;;;;9.40;94.60;;;;;;4960549;28;19930;-79
2022/11/22 13:36:45;;;;;;;;;;;9.40;94.60;;;;;;4955068;28;20521;-78
2022/11/22 13:39:16;;;;;;;;;;;9.40;94.60;;;;;;4961762;28;19929;-78
2022/11/22 13:41:47;;;;;;;;;;;9.50;94.40;;;;;;4966200;28;19930;-78
2022/11/22 13:44:24;;;;;;;;;;;9.50;94.20;;;;;;4968079;28;20615;-79
2022/11/22 13:46:59;;;;;;;;;;;9.50;94.10;;;;;;4963767;28;20503;-78
2022/11/22 13:49:36;;;;;;;;;;;9.50;94.10;;;;;;4964256;28;19957;-78
2022/11/22 13:52:04;;;;;;;;;;;9.60;94.20;;;;;;4954757;28;19930;-79
2022/11/22 13:54:56;;;;;;;;;;;9.60;94.30;;;;;;4959926;28;20651;-78
2022/11/22 13:57:41;;;;;;;;;;;9.60;94.30;;;;;;4960554;28;19929;-77
2022/11/22 14:00:26;;;;;;;;;;;9.60;94.40;;;;;;4957301;28;19930;-78
2022/11/22 14:02:54;;;;;;;;;;;9.60;94.30;;;;;;4964994;28;19937;-78
2022/11/22 14:05:21;;;;;;;;;;;9.60;94.20;;;;;;4956079;28;19941;-77
2022/11/22 14:07:49;;;;;;;;;;;9.70;94.20;;;;;;4964557;28;19934;-78
2022/11/22 14:10:32;;;;;;;;;;;9.70;94.20;;;;;;4958946;28;19930;-79
2022/11/22 14:13:10;;;;;;;;;;;9.70;94.20;;;;;;4953006;28;20634;-78
2022/11/22 14:15:45;;;;;;;;;;;9.70;94.20;;;;;;4958616;28;19937;-78
2022/11/22 14:18:29;;;;;;;;;;;9.70;94.20;;;;;;4963001;28;20074;-79
2022/11/22 14:21:02;;;;;;;;;;;9.70;94.30;;;;;;4960617;28;19930;-78
2022/11/22 14:23:34;;;;;;;;;;;9.70;94.30;;;;;;4958673;28;19952;-79
2022/11/22 14:26:09;;;;;;;;;;;9.70;94.40;;;;;;4959527;28;19930;-78
2022/11/22 14:28:52;;;;;;;;;;;9.70;94.50;;;;;;4958409;28;20137;-78
2022/11/22 14:31:21;;;;;;;;;;;9.70;94.30;;;;;;4960475;28;20033;-78
2022/11/22 14:34:06;;;;;;;;;;;9.70;94.20;;;;;;4959603;28;19937;-78
2022/11/22 14:36:33;;;;;;;;;;;9.70;94.10;;;;;;4959402;28;20391;-77
2022/11/22 14:38:59;;;;;;;;;;;9.70;94.00;;;;;;4957300;28;20378;-78
2022/11/22 14:41:40;;;;;;;;;;;9.70;93.90;;;;;;4961149;28;19938;-78
2022/11/22 14:44:08;;;;;;;;;;;9.70;93.90;;;;;;4956894;28;20629;-79
2022/11/22 14:46:36;;;;;;;;;;;9.70;94.00;;;;;;4954801;28;19930;-78
2022/11/22 14:49:05;;;;;;;;;;;9.70;94.00;;;;;;4958234;28;19941;-78
2022/11/22 14:51:32;;;;;;;;;;;9.70;94.10;;;;;;4962252;28;19938;-78
2022/11/22 14:53:59;;;;;;;;;;;9.70;94.10;;;;;;4960965;28;19937;-78